createdAt,value
2024-01-04T00:00:03.721Z,88.85
2024-01-04T00:02:35.665Z,88.64
2024-01-04T00:05:07.259Z,88.58
2024-01-04T00:07:37.187Z,88.22
2024-01-04T00:10:08.097Z,88.11
2024-01-04T00:12:37.817Z,87.99
2024-01-04T00:15:11.337Z,88.22
2024-01-04T00:17:41.114Z,88.29
2024-01-04T00:20:13.270Z,88.62
2024-01-04T00:22:43.136Z,89.01
2024-01-04T00:25:14.191Z,89.39
2024-01-04T00:27:43.779Z,89.81
2024-01-04T00:30:14.009Z,89.97
2024-01-04T00:32:46.647Z,90.12
2024-01-04T00:35:17.116Z,90.31
2024-01-04T00:37:47.119Z,90.39
2024-01-04T00:40:17.050Z,90.38
2024-01-04T00:42:46.712Z,90.48
2024-01-04T00:45:16.999Z,90.51
2024-01-04T00:47:46.755Z,90.54
2024-01-04T00:52:56.868Z,90.52
2024-01-04T00:55:33.274Z,90.59
2024-01-04T00:58:07.766Z,90.65
2024-01-04T01:00:37.331Z,90.61
2024-01-04T01:03:07.402Z,90.55
2024-01-04T01:05:37.194Z,90.66
2024-01-04T01:08:16.245Z,90.74
2024-01-04T01:10:47.098Z,90.75
2024-01-04T01:13:25.271Z,90.86
2024-01-04T01:15:54.954Z,90.64
2024-01-04T01:18:26.212Z,90.76
2024-01-04T01:21:00.195Z,90.84
2024-01-04T01:23:30.884Z,90.87
2024-01-04T01:26:00.972Z,90.76
2024-01-04T01:28:34.281Z,90.52
2024-01-04T01:31:05.543Z,90.58
2024-01-04T01:33:37.394Z,90.56
2024-01-04T01:36:11.877Z,90.45
2024-01-04T01:38:42.197Z,90.23
2024-01-04T01:41:11.823Z,90.23
2024-01-04T01:43:41.349Z,90.37
2024-01-04T01:46:10.945Z,90.40
2024-01-04T01:48:41.107Z,90.29
2024-01-04T01:51:13.207Z,90.29
2024-01-04T01:53:44.325Z,90.29
2024-01-04T01:56:14.248Z,90.25
2024-01-04T01:58:45.385Z,90.24
2024-01-04T02:01:16.184Z,90.45
2024-01-04T02:03:48.622Z,90.61
2024-01-04T02:06:18.710Z,90.73
2024-01-04T02:08:52.327Z,90.64
2024-01-04T02:11:24.331Z,90.96
2024-01-04T02:13:53.881Z,91.05
2024-01-04T02:16:23.687Z,91.03
2024-01-04T02:18:53.638Z,90.91
2024-01-04T02:21:23.898Z,90.97
2024-01-04T02:23:54.261Z,90.90
2024-01-04T02:26:23.858Z,90.95
2024-01-04T02:28:53.478Z,90.66
2024-01-04T02:31:22.945Z,90.61
2024-01-04T02:33:52.562Z,90.63
2024-01-04T02:36:22.179Z,90.54
2024-01-04T02:38:52.249Z,90.67
2024-01-04T02:41:21.971Z,90.85
2024-01-04T02:43:52.324Z,90.90
2024-01-04T02:46:22.096Z,91.08
2024-01-04T02:48:52.283Z,91.28
2024-01-04T02:51:21.963Z,91.08
2024-01-04T02:53:51.556Z,91.07
2024-01-04T02:56:21.619Z,91.03
2024-01-04T02:58:51.412Z,90.91
2024-01-04T03:01:27.703Z,91.05
2024-01-04T03:03:59.394Z,91.06
2024-01-04T03:06:33.415Z,91.12
2024-01-04T03:09:03.160Z,91.09
2024-01-04T03:11:34.027Z,91.13
2024-01-04T03:14:03.535Z,90.95
2024-01-04T03:16:35.568Z,90.83
2024-01-04T03:19:06.138Z,90.74
2024-01-04T03:21:35.908Z,90.42
2024-01-04T03:24:05.658Z,90.47
2024-01-04T03:26:36.147Z,90.59
2024-01-04T03:29:06.095Z,90.49
2024-01-04T03:31:36.220Z,90.69
2024-01-04T03:34:08.373Z,90.67
2024-01-04T03:36:38.189Z,90.57
2024-01-04T03:39:08.699Z,90.49
2024-01-04T03:41:38.340Z,90.42
2024-01-04T03:44:08.670Z,90.39
2024-01-04T03:46:38.283Z,90.07
2024-01-04T03:49:08.571Z,90.02
2024-01-04T03:51:38.088Z,89.82
2024-01-04T03:54:07.734Z,89.73
2024-01-04T03:56:37.362Z,89.25
2024-01-04T03:59:06.960Z,88.80
2024-01-04T04:01:44.906Z,88.86
2024-01-04T04:04:15.846Z,89.11
2024-01-04T04:06:45.820Z,89.28
2024-01-04T04:09:16.229Z,89.48
2024-01-04T04:11:46.967Z,88.98
2024-01-04T04:14:17.015Z,89.18
2024-01-04T04:16:46.588Z,89.25
2024-01-04T04:19:17.635Z,89.43
2024-01-04T04:21:47.415Z,89.33
2024-01-04T04:24:17.311Z,89.22
2024-01-04T04:26:46.945Z,89.36
2024-01-04T04:29:16.508Z,89.13
2024-01-04T04:31:46.170Z,89.02
2024-01-04T04:36:49.981Z,88.83
2024-01-04T04:39:19.647Z,88.91
2024-01-04T04:41:49.358Z,88.86
2024-01-04T04:44:19.048Z,88.74
2024-01-04T04:46:49.325Z,88.74
2024-01-04T04:49:19.003Z,88.76
2024-01-04T04:51:52.609Z,88.87
2024-01-04T04:54:23.197Z,89.01
2024-01-04T04:56:52.930Z,89.30
2024-01-04T04:59:22.516Z,89.80
2024-01-04T05:01:52.401Z,89.87
2024-01-04T05:04:22.791Z,89.77
2024-01-04T05:06:53.920Z,89.53
2024-01-04T05:09:24.318Z,89.87
2024-01-04T05:11:53.946Z,90.09
2024-01-04T05:14:23.737Z,89.98
2024-01-04T05:16:54.047Z,90.25
2024-01-04T05:19:23.796Z,90.42
2024-01-04T05:21:54.374Z,90.70
2024-01-04T05:24:23.958Z,90.42
2024-01-04T05:26:53.582Z,90.72
2024-01-04T05:29:23.055Z,90.92
2024-01-04T05:31:52.721Z,91.01
2024-01-04T05:34:22.525Z,90.95
2024-01-04T05:36:52.519Z,91.08
2024-01-04T05:39:22.128Z,91.23
2024-01-04T05:41:51.712Z,91.19
2024-01-04T05:44:21.497Z,91.40
2024-01-04T05:46:52.673Z,91.44
2024-01-04T05:49:23.071Z,91.53
2024-01-04T05:51:52.846Z,91.59
2024-01-04T05:54:22.451Z,91.69
2024-01-04T05:56:52.467Z,91.89
2024-01-04T05:59:26.908Z,92.06
2024-01-04T06:01:57.410Z,92.03
2024-01-04T06:04:27.588Z,92.19
2024-01-04T06:06:57.055Z,92.27
2024-01-04T06:09:26.868Z,92.23
2024-01-04T06:11:57.595Z,92.26
2024-01-04T06:14:27.557Z,92.25
2024-01-04T06:16:57.648Z,92.17
2024-01-04T06:19:32.103Z,92.27
2024-01-04T06:22:02.057Z,92.49
2024-01-04T06:24:32.007Z,92.64
2024-01-04T06:27:01.800Z,92.75
2024-01-04T06:29:34.324Z,92.80
2024-01-04T06:32:03.861Z,92.65
2024-01-04T06:34:35.169Z,92.53
2024-01-04T06:37:06.406Z,92.63
2024-01-04T06:39:35.981Z,92.73
2024-01-04T06:42:08.716Z,92.89
2024-01-04T06:44:44.409Z,93.02
2024-01-04T06:47:17.959Z,92.94
2024-01-04T06:49:47.729Z,92.99
2024-01-04T06:52:17.860Z,92.94
2024-01-04T06:54:47.412Z,92.99
2024-01-04T06:57:17.470Z,93.07
2024-01-04T06:59:48.013Z,93.09
2024-01-04T07:02:18.603Z,93.20
2024-01-04T07:04:48.287Z,93.13
2024-01-04T07:07:18.002Z,93.12
2024-01-04T07:09:47.910Z,93.24
2024-01-04T07:12:17.564Z,93.34
2024-01-04T07:14:47.089Z,93.54
2024-01-04T07:17:19.514Z,93.53
2024-01-04T07:19:49.672Z,93.45
2024-01-04T07:22:20.721Z,93.64
2024-01-04T07:24:50.589Z,93.72
2024-01-04T07:27:20.308Z,93.64
2024-01-04T07:29:50.228Z,93.54
2024-01-04T07:32:22.083Z,93.49
2024-01-04T07:35:00.634Z,93.39
2024-01-04T07:37:37.604Z,93.43
2024-01-04T07:40:08.424Z,93.66
2024-01-04T07:42:38.076Z,93.78
2024-01-04T07:45:08.609Z,93.73
2024-01-04T07:47:42.479Z,93.56
2024-01-04T07:50:14.454Z,93.37
2024-01-04T07:52:44.395Z,93.37
2024-01-04T07:55:14.091Z,93.35
2024-01-04T07:57:44.330Z,93.13
2024-01-04T08:00:17.284Z,93.19
2024-01-04T08:02:47.085Z,93.04
2024-01-04T08:05:17.609Z,92.78
2024-01-04T08:07:47.327Z,92.34
2024-01-04T08:10:18.011Z,92.74
2024-01-04T08:12:49.901Z,92.75
2024-01-04T08:15:19.628Z,92.69
2024-01-04T08:17:49.397Z,92.89
2024-01-04T08:20:23.013Z,93.10
2024-01-04T08:22:52.501Z,93.21
2024-01-04T08:25:22.504Z,93.30
2024-01-04T08:27:52.643Z,93.43
2024-01-04T08:30:22.805Z,93.47
2024-01-04T08:32:52.592Z,93.50
2024-01-04T08:35:22.440Z,93.53
2024-01-04T08:37:53.399Z,93.62
2024-01-04T08:40:23.273Z,93.35
2024-01-04T08:42:52.750Z,93.35
2024-01-04T08:45:22.594Z,93.33
2024-01-04T08:47:52.824Z,93.13
2024-01-04T08:50:23.938Z,93.13
2024-01-04T08:52:55.007Z,93.19
2024-01-04T08:55:25.088Z,93.24
2024-01-04T08:57:54.956Z,93.35
2024-01-04T09:00:24.828Z,93.48
2024-01-04T09:02:54.582Z,93.40
2024-01-04T09:05:24.904Z,93.35
2024-01-04T09:07:57.034Z,93.19
2024-01-04T09:10:28.216Z,93.10
2024-01-04T09:12:57.672Z,93.05
2024-01-04T09:15:29.481Z,93.22
2024-01-04T09:17:59.632Z,93.13
2024-01-04T09:20:30.071Z,92.94
2024-01-04T09:22:59.590Z,92.64
2024-01-04T09:25:30.691Z,92.73
2024-01-04T09:28:11.260Z,92.88
2024-01-04T09:30:59.597Z,92.75
2024-01-04T09:33:37.017Z,93.07
2024-01-04T09:36:09.863Z,93.04
2024-01-04T09:38:41.770Z,93.44
2024-01-04T09:41:33.175Z,93.43
2024-01-04T09:44:09.798Z,93.63
2024-01-04T09:46:43.617Z,93.71
2024-01-04T09:49:16.290Z,93.53
2024-01-04T09:51:46.381Z,93.45
2024-01-04T09:54:19.219Z,93.20
2024-01-04T09:56:57.322Z,93.29
2024-01-04T09:59:27.641Z,93.08
2024-01-04T10:04:43.116Z,93.29
2024-01-04T10:07:27.823Z,93.36
2024-01-04T10:10:25.926Z,93.13
2024-01-04T10:13:01.641Z,93.29
2024-01-04T10:15:33.258Z,93.39
2024-01-04T10:18:04.386Z,93.24
2024-01-04T10:20:36.367Z,93.50
2024-01-04T10:23:11.258Z,93.50
2024-01-04T10:25:40.908Z,92.69
2024-01-04T10:28:14.906Z,92.59
2024-01-04T10:30:56.629Z,92.51
2024-01-04T10:33:26.290Z,93.14
2024-01-04T10:35:55.997Z,93.36
2024-01-04T10:38:27.269Z,93.45
2024-01-04T10:41:07.233Z,93.38
2024-01-04T10:43:38.754Z,93.35
2024-01-04T10:46:15.290Z,92.65
2024-01-04T10:48:49.003Z,93.04
2024-01-04T10:51:21.118Z,93.17
2024-01-04T10:53:57.526Z,93.07
2024-01-04T10:56:32.491Z,92.71
2024-01-04T10:59:07.067Z,93.03
2024-01-04T11:01:38.503Z,92.71
2024-01-04T11:04:10.177Z,92.62
2024-01-04T11:06:44.425Z,92.96
2024-01-04T11:09:15.466Z,92.08
2024-01-04T11:11:47.751Z,92.11
2024-01-04T11:14:17.443Z,91.47
2024-01-04T11:17:40.945Z,91.87
2024-01-04T11:21:57.686Z,92.04
2024-01-04T11:24:46.304Z,92.27
2024-01-04T11:27:25.569Z,92.20
2024-01-04T11:29:57.347Z,91.79
2024-01-04T11:32:36.015Z,91.92
2024-01-04T11:35:07.573Z,91.83
2024-01-04T11:37:38.528Z,91.96
2024-01-04T11:40:12.650Z,92.39
2024-01-04T11:42:45.732Z,92.18
2024-01-04T11:45:21.513Z,92.17
2024-01-04T11:47:57.105Z,91.09
2024-01-04T11:50:31.915Z,91.67
2024-01-04T11:53:12.139Z,91.75
2024-01-04T11:55:44.501Z,91.32
2024-01-04T11:58:31.734Z,91.62
2024-01-04T12:01:05.907Z,90.57
2024-01-04T12:03:35.676Z,91.44
2024-01-04T12:06:10.940Z,90.75
2024-01-04T12:08:42.018Z,90.87
2024-01-04T12:11:13.250Z,90.35
2024-01-04T12:13:43.717Z,90.31
2024-01-04T12:16:13.443Z,90.22
2024-01-04T12:18:43.205Z,90.32
2024-01-04T12:21:18.779Z,89.86
2024-01-04T12:23:53.951Z,88.93
2024-01-04T12:26:30.331Z,88.96
2024-01-04T12:29:03.667Z,87.11
2024-01-04T12:31:37.589Z,88.16
2024-01-04T12:34:14.117Z,88.98
2024-01-04T12:36:45.078Z,88.99
2024-01-04T12:41:52.336Z,89.20
2024-01-04T12:44:26.085Z,89.63
2024-01-04T12:47:07.828Z,89.53
2024-01-04T12:49:43.252Z,89.31
2024-01-04T12:52:15.995Z,89.42
2024-01-04T12:54:45.899Z,89.96
2024-01-04T12:57:15.898Z,90.40
2024-01-04T12:59:50.774Z,90.33
2024-01-04T13:02:20.904Z,89.70
2024-01-04T13:04:50.474Z,90.30
2024-01-04T13:07:22.486Z,89.81
2024-01-04T13:09:52.141Z,89.33
2024-01-04T13:12:24.894Z,89.81
2024-01-04T13:14:56.623Z,90.13
2024-01-04T13:17:33.693Z,88.98
2024-01-04T13:20:10.367Z,89.35
2024-01-04T13:22:39.979Z,89.32
2024-01-04T13:25:12.819Z,89.29
2024-01-04T13:27:42.843Z,89.79
2024-01-04T13:30:18.724Z,90.53
2024-01-04T13:32:49.289Z,90.40
2024-01-04T13:35:19.709Z,89.85
2024-01-04T13:37:50.312Z,90.11
2024-01-04T13:40:19.971Z,89.54
2024-01-04T13:42:50.878Z,89.15
2024-01-04T13:45:23.500Z,88.47
2024-01-04T13:50:32.338Z,87.78
2024-01-04T13:53:11.735Z,88.56
2024-01-04T13:55:41.917Z,88.34
2024-01-04T13:58:11.546Z,88.53
2024-01-04T14:00:51.648Z,88.83
2024-01-04T14:03:28.813Z,87.68
2024-01-04T14:05:58.706Z,87.14
2024-01-04T14:08:29.863Z,86.68
2024-01-04T14:11:01.563Z,86.39
2024-01-04T14:16:06.335Z,86.08
2024-01-04T14:18:36.459Z,86.41
2024-01-04T14:21:09.049Z,86.29
2024-01-04T14:26:24.716Z,86.90
2024-01-04T14:28:54.603Z,86.90
2024-01-04T14:31:25.189Z,87.68
2024-01-04T14:33:55.292Z,87.89
2024-01-04T14:36:25.343Z,88.04
2024-01-04T14:38:55.490Z,88.05
2024-01-04T14:41:25.669Z,87.67
2024-01-04T14:43:55.572Z,88.31
2024-01-04T14:46:27.812Z,88.82
2024-01-04T14:48:58.465Z,88.44
2024-01-04T14:51:34.155Z,88.65
2024-01-04T14:54:12.469Z,89.13
2024-01-04T14:56:45.633Z,88.97
2024-01-04T14:59:26.489Z,89.30
2024-01-04T15:02:00.006Z,89.20
2024-01-04T15:04:30.700Z,89.44
2024-01-04T15:07:08.215Z,89.73
2024-01-04T15:09:39.256Z,90.15
2024-01-04T15:12:09.008Z,90.47
2024-01-04T15:14:40.572Z,90.58
2024-01-04T15:17:10.563Z,90.71
2024-01-04T15:19:40.264Z,90.69
2024-01-04T15:22:11.033Z,91.13
2024-01-04T15:24:51.545Z,90.88
2024-01-04T15:27:28.449Z,91.04
2024-01-04T15:29:58.989Z,91.08
2024-01-04T15:32:29.328Z,91.17
2024-01-04T15:34:59.282Z,91.21
2024-01-04T15:37:34.798Z,91.16
2024-01-04T15:40:09.203Z,91.25
2024-01-04T15:42:39.132Z,91.28
2024-01-04T15:45:11.313Z,91.32
2024-01-04T15:47:40.953Z,91.21
2024-01-04T15:50:11.637Z,90.98
2024-01-04T15:52:44.505Z,90.84
2024-01-04T15:55:14.524Z,90.96
2024-01-04T15:57:44.087Z,91.08
2024-01-04T16:00:15.093Z,90.94
2024-01-04T16:02:44.731Z,91.28
2024-01-04T16:05:15.270Z,90.91
2024-01-04T16:07:45.349Z,90.62
2024-01-04T16:10:16.962Z,90.69
2024-01-04T16:12:49.904Z,90.38
2024-01-04T16:15:23.448Z,90.00
2024-01-04T16:17:53.581Z,89.31
2024-01-04T16:20:30.828Z,88.75
2024-01-04T16:23:08.375Z,88.90
2024-01-04T16:25:38.257Z,88.44
2024-01-04T16:28:08.498Z,88.51
2024-01-04T16:30:38.237Z,88.54
2024-01-04T16:33:09.991Z,88.42
2024-01-04T16:35:45.109Z,87.77
2024-01-04T16:38:15.145Z,87.66
2024-01-04T16:40:44.866Z,87.62
2024-01-04T16:43:14.983Z,87.13
2024-01-04T16:45:44.704Z,87.01
2024-01-04T16:48:17.153Z,87.17
2024-01-04T16:50:47.842Z,87.19
2024-01-04T16:53:17.818Z,87.48
2024-01-04T16:55:47.442Z,87.76
2024-01-04T16:58:20.754Z,87.78
2024-01-04T17:03:23.579Z,88.65
2024-01-04T17:05:55.307Z,89.23
2024-01-04T17:08:25.635Z,88.98
2024-01-04T17:10:55.860Z,89.13
2024-01-04T17:13:25.733Z,89.53
2024-01-04T17:15:55.203Z,90.04
2024-01-04T17:18:28.428Z,90.25
2024-01-04T17:20:59.528Z,90.44
2024-01-04T17:23:32.254Z,90.57
2024-01-04T17:26:03.817Z,91.13
2024-01-04T17:28:35.180Z,91.40
2024-01-04T17:31:06.214Z,91.17
2024-01-04T17:33:36.178Z,91.38
2024-01-04T17:36:22.443Z,91.93
2024-01-04T17:38:58.755Z,91.97
2024-01-04T17:41:28.281Z,91.98
2024-01-04T17:43:59.550Z,91.84
2024-01-04T17:49:02.714Z,91.32
2024-01-04T17:51:33.274Z,90.91
2024-01-04T17:54:03.766Z,90.86
2024-01-04T17:56:33.533Z,90.93
2024-01-04T17:59:03.242Z,91.04
2024-01-04T18:04:08.481Z,91.40
2024-01-04T18:06:38.171Z,91.55
2024-01-04T18:09:09.309Z,91.72
2024-01-04T18:11:39.900Z,91.76
2024-01-04T18:14:10.669Z,92.35
2024-01-04T18:16:41.045Z,92.43
2024-01-04T18:19:13.079Z,92.02
2024-01-04T18:21:45.173Z,92.18
2024-01-04T18:24:15.432Z,92.34
2024-01-04T18:26:45.012Z,91.98
2024-01-04T18:29:19.179Z,92.26
2024-01-04T18:31:50.149Z,92.40
2024-01-04T18:34:25.101Z,92.84
2024-01-04T18:36:57.296Z,92.71
2024-01-04T18:39:27.623Z,92.80
2024-01-04T18:41:57.330Z,92.39
2024-01-04T18:44:27.035Z,92.35
2024-01-04T18:46:56.608Z,92.56
2024-01-04T18:49:26.193Z,92.75
2024-01-04T18:51:58.897Z,92.62
2024-01-04T18:54:28.561Z,92.40
2024-01-04T18:56:58.902Z,92.27
2024-01-04T18:59:28.618Z,92.04
2024-01-04T19:01:58.325Z,92.28
2024-01-04T19:04:29.817Z,92.12
2024-01-04T19:06:59.622Z,92.19
2024-01-04T19:09:30.227Z,92.39
2024-01-04T19:11:59.750Z,93.07
2024-01-04T19:14:29.389Z,92.97
2024-01-04T19:17:00.246Z,93.12
2024-01-04T19:19:30.968Z,93.21
2024-01-04T19:22:01.192Z,93.15
2024-01-04T19:24:30.787Z,93.37
2024-01-04T19:27:00.383Z,93.10
2024-01-04T19:29:30.261Z,93.02
2024-01-04T19:32:01.835Z,92.94
2024-01-04T19:34:32.003Z,92.88
2024-01-04T19:37:02.661Z,93.20
2024-01-04T19:39:32.353Z,93.42
2024-01-04T19:42:02.058Z,93.51
2024-01-04T19:44:32.312Z,93.66
2024-01-04T19:47:04.012Z,93.68
2024-01-04T19:49:34.617Z,93.73
2024-01-04T19:52:06.061Z,93.74
2024-01-04T19:54:37.423Z,93.81
2024-01-04T19:57:07.386Z,93.63
2024-01-04T19:59:37.219Z,93.67
2024-01-04T20:02:07.273Z,93.62
2024-01-04T20:04:37.469Z,93.85
2024-01-04T20:09:51.206Z,93.86
2024-01-04T20:12:22.456Z,93.78
2024-01-04T20:14:52.916Z,93.85
2024-01-04T20:17:22.953Z,93.80
2024-01-04T20:19:53.694Z,93.73
2024-01-04T20:22:24.312Z,93.77
2024-01-04T20:24:57.364Z,93.78
2024-01-04T20:27:29.117Z,93.88
2024-01-04T20:29:58.689Z,93.95
2024-01-04T20:32:28.405Z,93.96
2024-01-04T20:34:59.881Z,93.91
2024-01-04T20:37:29.585Z,94.00
2024-01-04T20:40:01.375Z,93.96
2024-01-04T20:42:31.400Z,93.95
2024-01-04T20:45:01.891Z,93.99
2024-01-04T20:47:31.924Z,94.01
2024-01-04T20:50:01.794Z,94.07
2024-01-04T20:52:31.938Z,94.16
2024-01-04T20:55:01.414Z,94.02
2024-01-04T20:57:36.163Z,94.06
2024-01-04T21:00:10.118Z,93.96
2024-01-04T21:02:39.655Z,93.21
2024-01-04T21:05:22.053Z,93.25
2024-01-04T21:07:52.459Z,93.34
2024-01-04T21:10:22.145Z,93.37
2024-01-04T21:12:51.766Z,93.37
2024-01-04T21:15:21.985Z,93.49
2024-01-04T21:17:51.738Z,93.36
2024-01-04T21:20:22.029Z,93.40
2024-01-04T21:22:52.511Z,93.56
2024-01-04T21:25:22.248Z,93.10
2024-01-04T21:27:52.456Z,93.42
2024-01-04T21:30:23.064Z,93.30
2024-01-04T21:32:52.859Z,93.32
2024-01-04T21:35:22.496Z,93.41
2024-01-04T21:37:52.144Z,93.51
2024-01-04T21:40:23.048Z,92.82
2024-01-04T21:42:52.711Z,92.79
2024-01-04T21:45:24.338Z,92.97
2024-01-04T21:47:56.232Z,91.99
2024-01-04T21:50:25.835Z,92.29
2024-01-04T21:52:56.157Z,92.24
2024-01-04T21:55:25.577Z,91.85
2024-01-04T21:57:55.484Z,90.68
2024-01-04T22:00:25.410Z,89.93
2024-01-04T22:02:55.531Z,89.72
2024-01-04T22:05:25.055Z,90.55
2024-01-04T22:07:57.607Z,89.99
2024-01-04T22:10:28.687Z,89.86
2024-01-04T22:12:58.688Z,90.10
2024-01-04T22:15:28.297Z,90.12
2024-01-04T22:17:57.979Z,90.08
2024-01-04T22:20:27.663Z,90.26
2024-01-04T22:22:57.419Z,90.39
2024-01-04T22:25:26.780Z,90.20
2024-01-04T22:27:56.231Z,90.00
2024-01-04T22:30:25.874Z,90.01
2024-01-04T22:35:28.699Z,90.21
2024-01-04T22:37:58.318Z,90.21
2024-01-04T22:40:27.829Z,90.13
2024-01-04T22:42:58.144Z,90.04
2024-01-04T22:45:31.306Z,89.94
2024-01-04T22:48:02.930Z,89.83
2024-01-04T22:50:32.689Z,89.85
2024-01-04T22:53:02.375Z,89.90
2024-01-04T22:55:33.155Z,90.03
2024-01-04T22:58:04.260Z,90.00
2024-01-04T23:00:36.552Z,90.05
2024-01-04T23:03:06.456Z,90.06
2024-01-04T23:05:36.208Z,90.39
2024-01-04T23:08:07.663Z,90.35
2024-01-04T23:10:37.564Z,90.05
2024-01-04T23:13:07.468Z,90.07
2024-01-04T23:18:10.874Z,90.25
2024-01-04T23:20:40.643Z,90.56
2024-01-04T23:23:10.193Z,90.64
2024-01-04T23:25:39.890Z,90.81
2024-01-04T23:28:09.515Z,90.69
2024-01-04T23:30:39.001Z,90.57
2024-01-04T23:33:08.723Z,90.73
2024-01-04T23:35:40.668Z,90.69
2024-01-04T23:38:11.957Z,90.65
2024-01-04T23:43:16.606Z,90.66
2024-01-04T23:45:46.295Z,90.52
2024-01-04T23:48:19.614Z,90.70
2024-01-04T23:50:51.706Z,90.77
2024-01-04T23:53:21.440Z,91.12
2024-01-04T23:55:51.209Z,91.17
2024-01-04T23:58:21.023Z,91.20
